sensor_id;sensor_type;location;lat;lon;timestamp;pressure;altitude;pressure_sealevel;temperature
12662;BMP180;3200;48.204;11.576;2024-03-02T00:00:10;94035.84;;;6.53
12662;BMP180;3200;48.204;11.576;2024-03-02T00:02:43;94008.78;;;6.57
12662;BMP180;3200;48.204;11.576;2024-03-02T00:05:15;94029.34;;;6.67
12662;BMP180;3200;48.204;11.576;2024-03-02T00:07:44;94078.41;;;6.75
12662;BMP180;3200;48.204;11.576;2024-03-02T00:10:16;94020.63;;;6.55
12662;BMP180;3200;48.204;11.576;2024-03-02T00:12:42;94088.84;;;6.81
12662;BMP180;3200;48.204;11.576;2024-03-02T00:15:55;94080.25;;;6.74
12662;BMP180;3200;48.204;11.576;2024-03-02T00:18:30;94032.91;;;6.73
12662;BMP180;3200;48.204;11.576;2024-03-02T00:21:27;94061.16;;;6.72
12662;BMP180;3200;48.204;11.576;2024-03-02T00:23:59;94064.94;;;6.64
12662;BMP180;3200;48.204;11.576;2024-03-02T00:26:25;93946.47;;;5.84
12662;BMP180;3200;48.204;11.576;2024-03-02T00:28:55;94049.25;;;6.81
12662;BMP180;3200;48.204;11.576;2024-03-02T00:31:25;93989.44;;;6.33
12662;BMP180;3200;48.204;11.576;2024-03-02T00:33:51;93947.16;;;5.80
12662;BMP180;3200;48.204;11.576;2024-03-02T00:36:26;93973.81;;;6.20
12662;BMP180;3200;48.204;11.576;2024-03-02T00:38:53;93964.81;;;5.98
12662;BMP180;3200;48.204;11.576;2024-03-02T00:41:31;94001.47;;;6.29
12662;BMP180;3200;48.204;11.576;2024-03-02T00:46:24;93980.47;;;6.23
12662;BMP180;3200;48.204;11.576;2024-03-02T00:48:59;93999.66;;;6.00
12662;BMP180;3200;48.204;11.576;2024-03-02T00:51:28;94035.41;;;6.56
12662;BMP180;3200;48.204;11.576;2024-03-02T00:53:59;93976.19;;;6.10
12662;BMP180;3200;48.204;11.576;2024-03-02T00:56:25;94047.41;;;6.82
12662;BMP180;3200;48.204;11.576;2024-03-02T00:58:52;94032.41;;;6.82
12662;BMP180;3200;48.204;11.576;2024-03-02T01:01:19;94040.28;;;6.71
12662;BMP180;3200;48.204;11.576;2024-03-02T01:03:48;94024.88;;;6.56
12662;BMP180;3200;48.204;11.576;2024-03-02T01:06:15;94004.78;;;6.55
12662;BMP180;3200;48.204;11.576;2024-03-02T01:08:42;94040.69;;;6.56
12662;BMP180;3200;48.204;11.576;2024-03-02T01:11:08;93999.75;;;6.23
12662;BMP180;3200;48.204;11.576;2024-03-02T01:13:34;93939.69;;;6.07
12662;BMP180;3200;48.204;11.576;2024-03-02T01:16:00;93938.50;;;6.33
12662;BMP180;3200;48.204;11.576;2024-03-02T01:18:27;93967.84;;;6.66
12662;BMP180;3200;48.204;11.576;2024-03-02T01:20:53;93948.19;;;6.51
12662;BMP180;3200;48.204;11.576;2024-03-02T01:23:22;93984.94;;;6.64
12662;BMP180;3200;48.204;11.576;2024-03-02T01:25:49;93982.88;;;6.54
12662;BMP180;3200;48.204;11.576;2024-03-02T01:28:16;93952.94;;;6.30
12662;BMP180;3200;48.204;11.576;2024-03-02T01:30:42;94011.22;;;6.71
12662;BMP180;3200;48.204;11.576;2024-03-02T01:33:08;93957.09;;;6.38
12662;BMP180;3200;48.204;11.576;2024-03-02T01:35:35;94027.56;;;6.79
12662;BMP180;3200;48.204;11.576;2024-03-02T01:38:01;94037.88;;;6.81
12662;BMP180;3200;48.204;11.576;2024-03-02T01:40:27;93991.38;;;6.26
12662;BMP180;3200;48.204;11.576;2024-03-02T01:42:54;93962.00;;;6.23
12662;BMP180;3200;48.204;11.576;2024-03-02T01:45:21;94027.25;;;6.57
12662;BMP180;3200;48.204;11.576;2024-03-02T01:47:47;93949.13;;;5.84
12662;BMP180;3200;48.204;11.576;2024-03-02T01:50:13;94005.28;;;6.33
12662;BMP180;3200;48.204;11.576;2024-03-02T01:52:39;93939.00;;;6.00
12662;BMP180;3200;48.204;11.576;2024-03-02T01:55:06;93973.94;;;6.25
12662;BMP180;3200;48.204;11.576;2024-03-02T01:57:34;94010.81;;;6.44
12662;BMP180;3200;48.204;11.576;2024-03-02T02:00:00;93996.00;;;6.31
12662;BMP180;3200;48.204;11.576;2024-03-02T02:02:26;93959.72;;;6.26
12662;BMP180;3200;48.204;11.576;2024-03-02T02:04:52;93910.94;;;5.57
12662;BMP180;3200;48.204;11.576;2024-03-02T02:07:18;94012.50;;;6.26
12662;BMP180;3200;48.204;11.576;2024-03-02T02:09:44;94013.59;;;6.49
12662;BMP180;3200;48.204;11.576;2024-03-02T02:12:11;93928.97;;;5.90
12662;BMP180;3200;48.204;11.576;2024-03-02T02:14:37;93882.34;;;5.72
12662;BMP180;3200;48.204;11.576;2024-03-02T02:17:05;94011.53;;;6.51
12662;BMP180;3200;48.204;11.576;2024-03-02T02:19:32;93930.00;;;5.89
12662;BMP180;3200;48.204;11.576;2024-03-02T02:21:58;93989.56;;;6.27
12662;BMP180;3200;48.204;11.576;2024-03-02T02:24:24;93902.91;;;5.52
12662;BMP180;3200;48.204;11.576;2024-03-02T02:26:49;93901.03;;;5.71
12662;BMP180;3200;48.204;11.576;2024-03-02T02:29:15;93908.28;;;5.75
12662;BMP180;3200;48.204;11.576;2024-03-02T02:31:42;93916.88;;;6.01
12662;BMP180;3200;48.204;11.576;2024-03-02T02:34:08;93919.59;;;5.94
12662;BMP180;3200;48.204;11.576;2024-03-02T02:36:38;93904.28;;;6.03
12662;BMP180;3200;48.204;11.576;2024-03-02T02:39:08;93875.06;;;5.86
12662;BMP180;3200;48.204;11.576;2024-03-02T02:41:36;93932.44;;;6.32
12662;BMP180;3200;48.204;11.576;2024-03-02T02:44:02;93998.59;;;6.73
12662;BMP180;3200;48.204;11.576;2024-03-02T02:46:28;94020.78;;;6.83
12662;BMP180;3200;48.204;11.576;2024-03-02T02:48:53;93896.56;;;6.01
12662;BMP180;3200;48.204;11.576;2024-03-02T02:51:19;93935.56;;;6.53
12662;BMP180;3200;48.204;11.576;2024-03-02T02:53:45;93929.25;;;6.42
12662;BMP180;3200;48.204;11.576;2024-03-02T02:56:11;93966.19;;;6.54
12662;BMP180;3200;48.204;11.576;2024-03-02T02:58:39;93908.53;;;6.15
12662;BMP180;3200;48.204;11.576;2024-03-02T03:01:05;93919.00;;;6.22
12662;BMP180;3200;48.204;11.576;2024-03-02T03:03:31;93903.28;;;6.27
12662;BMP180;3200;48.204;11.576;2024-03-02T03:05:57;93961.50;;;6.56
12662;BMP180;3200;48.204;11.576;2024-03-02T03:08:22;93904.06;;;6.16
12662;BMP180;3200;48.204;11.576;2024-03-02T03:10:49;93976.09;;;6.70
12662;BMP180;3200;48.204;11.576;2024-03-02T03:13:15;93943.63;;;6.16
12662;BMP180;3200;48.204;11.576;2024-03-02T03:15:41;93951.34;;;6.29
12662;BMP180;3200;48.204;11.576;2024-03-02T03:18:06;94028.03;;;6.88
12662;BMP180;3200;48.204;11.576;2024-03-02T03:20:36;93988.25;;;6.59
12662;BMP180;3200;48.204;11.576;2024-03-02T03:23:02;94025.28;;;6.83
12662;BMP180;3200;48.204;11.576;2024-03-02T03:25:30;93993.50;;;6.36
12662;BMP180;3200;48.204;11.576;2024-03-02T03:27:56;94021.69;;;6.77
12662;BMP180;3200;48.204;11.576;2024-03-02T03:30:21;93966.19;;;6.54
12662;BMP180;3200;48.204;11.576;2024-03-02T03:32:47;93962.69;;;6.30
12662;BMP180;3200;48.204;11.576;2024-03-02T03:35:16;94027.13;;;6.82
12662;BMP180;3200;48.204;11.576;2024-03-02T03:37:41;93974.97;;;6.24
12662;BMP180;3200;48.204;11.576;2024-03-02T03:40:07;93967.97;;;6.30
12662;BMP180;3200;48.204;11.576;2024-03-02T03:42:37;93962.25;;;6.33
12662;BMP180;3200;48.204;11.576;2024-03-02T03:45:04;94039.59;;;6.75
12662;BMP180;3200;48.204;11.576;2024-03-02T03:47:31;93993.25;;;6.49
12662;BMP180;3200;48.204;11.576;2024-03-02T03:49:57;94016.06;;;6.74
12662;BMP180;3200;48.204;11.576;2024-03-02T03:52:23;94029.72;;;6.71
12662;BMP180;3200;48.204;11.576;2024-03-02T03:54:50;93994.31;;;6.48
12662;BMP180;3200;48.204;11.576;2024-03-02T03:57:17;93973.41;;;5.86
12662;BMP180;3200;48.204;11.576;2024-03-02T03:59:43;93917.44;;;5.54
12662;BMP180;3200;48.204;11.576;2024-03-02T04:02:09;94033.06;;;6.36
12662;BMP180;3200;48.204;11.576;2024-03-02T04:04:37;94037.59;;;6.17
12662;BMP180;3200;48.204;11.576;2024-03-02T04:07:03;94015.81;;;6.22
12662;BMP180;3200;48.204;11.576;2024-03-02T04:09:29;93930.84;;;5.53
12662;BMP180;3200;48.204;11.576;2024-03-02T04:11:54;93955.19;;;5.85
12662;BMP180;3200;48.204;11.576;2024-03-02T04:14:20;94025.78;;;6.50
12662;BMP180;3200;48.204;11.576;2024-03-02T04:16:46;93979.94;;;6.32
12662;BMP180;3200;48.204;11.576;2024-03-02T04:19:12;93986.88;;;6.15
12662;BMP180;3200;48.204;11.576;2024-03-02T04:21:38;94048.75;;;6.61
12662;BMP180;3200;48.204;11.576;2024-03-02T04:24:04;94034.97;;;6.59
12662;BMP180;3200;48.204;11.576;2024-03-02T04:26:30;94043.69;;;6.59
12662;BMP180;3200;48.204;11.576;2024-03-02T04:28:56;94040.09;;;6.54
12662;BMP180;3200;48.204;11.576;2024-03-02T04:31:22;94030.94;;;6.56
12662;BMP180;3200;48.204;11.576;2024-03-02T04:33:47;94032.00;;;6.67
12662;BMP180;3200;48.204;11.576;2024-03-02T04:36:13;94037.13;;;6.50
12662;BMP180;3200;48.204;11.576;2024-03-02T04:38:39;94016.47;;;6.47
12662;BMP180;3200;48.204;11.576;2024-03-02T04:41:06;93973.84;;;6.32
12662;BMP180;3200;48.204;11.576;2024-03-02T04:43:32;94018.53;;;6.57
12662;BMP180;3200;48.204;11.576;2024-03-02T04:45:59;93987.16;;;6.37
12662;BMP180;3200;48.204;11.576;2024-03-02T04:48:25;94069.94;;;6.84
12662;BMP180;3200;48.204;11.576;2024-03-02T04:50:51;94025.00;;;6.61
12662;BMP180;3200;48.204;11.576;2024-03-02T04:53:17;94036.34;;;6.50
12662;BMP180;3200;48.204;11.576;2024-03-02T04:55:43;94005.28;;;6.33
12662;BMP180;3200;48.204;11.576;2024-03-02T04:58:09;94068.66;;;6.75
12662;BMP180;3200;48.204;11.576;2024-03-02T05:00:35;94074.84;;;6.81
12662;BMP180;3200;48.204;11.576;2024-03-02T05:03:02;94065.88;;;6.70
12662;BMP180;3200;48.204;11.576;2024-03-02T05:05:28;94025.19;;;6.48
12662;BMP180;3200;48.204;11.576;2024-03-02T05:07:54;94059.66;;;6.34
12662;BMP180;3200;48.204;11.576;2024-03-02T05:10:20;93996.78;;;6.31
12662;BMP180;3200;48.204;11.576;2024-03-02T05:12:46;94069.50;;;6.87
12662;BMP180;3200;48.204;11.576;2024-03-02T05:15:15;94030.75;;;6.70
12662;BMP180;3200;48.204;11.576;2024-03-02T05:17:42;94059.59;;;6.83
12662;BMP180;3200;48.204;11.576;2024-03-02T05:20:11;94009.09;;;6.49
12662;BMP180;3200;48.204;11.576;2024-03-02T05:22:37;94018.25;;;6.77
12662;BMP180;3200;48.204;11.576;2024-03-02T05:25:04;94071.78;;;6.96
12662;BMP180;3200;48.204;11.576;2024-03-02T05:27:30;94060.09;;;7.03
12662;BMP180;3200;48.204;11.576;2024-03-02T05:29:59;94038.63;;;6.58
12662;BMP180;3200;48.204;11.576;2024-03-02T05:32:25;94009.53;;;6.34
12662;BMP180;3200;48.204;11.576;2024-03-02T05:34:51;94065.44;;;6.73
12662;BMP180;3200;48.204;11.576;2024-03-02T05:37:17;94071.84;;;6.77
12662;BMP180;3200;48.204;11.576;2024-03-02T05:39:43;94004.59;;;6.26
12662;BMP180;3200;48.204;11.576;2024-03-02T05:42:10;94090.38;;;6.89
12662;BMP180;3200;48.204;11.576;2024-03-02T05:44:38;93998.94;;;6.23
12662;BMP180;3200;48.204;11.576;2024-03-02T05:47:05;94069.75;;;6.68
12662;BMP180;3200;48.204;11.576;2024-03-02T05:49:30;94067.91;;;6.56
12662;BMP180;3200;48.204;11.576;2024-03-02T05:51:56;94050.09;;;6.52
12662;BMP180;3200;48.204;11.576;2024-03-02T05:54:22;94013.16;;;6.22
12662;BMP180;3200;48.204;11.576;2024-03-02T05:56:48;93993.75;;;6.16
12662;BMP180;3200;48.204;11.576;2024-03-02T05:59:14;94008.78;;;6.15
12662;BMP180;3200;48.204;11.576;2024-03-02T06:01:46;94070.03;;;6.48
12662;BMP180;3200;48.204;11.576;2024-03-02T06:04:13;94027.72;;;6.24
12662;BMP180;3200;48.204;11.576;2024-03-02T06:06:40;94028.19;;;6.21
12662;BMP180;3200;48.204;11.576;2024-03-02T06:09:07;94024.97;;;6.19
12662;BMP180;3200;48.204;11.576;2024-03-02T06:11:40;94065.38;;;6.50
12662;BMP180;3200;48.204;11.576;2024-03-02T06:14:08;94090.22;;;6.72
12662;BMP180;3200;48.204;11.576;2024-03-02T06:16:35;94097.88;;;6.62
12662;BMP180;3200;48.204;11.576;2024-03-02T06:19:01;94028.19;;;6.21
12662;BMP180;3200;48.204;11.576;2024-03-02T06:21:28;94094.56;;;6.66
12662;BMP180;3200;48.204;11.576;2024-03-02T06:23:54;93979.59;;;5.99
12662;BMP180;3200;48.204;11.576;2024-03-02T06:26:20;94047.13;;;6.30
12662;BMP180;3200;48.204;11.576;2024-03-02T06:28:46;94021.03;;;6.10
12662;BMP180;3200;48.204;11.576;2024-03-02T06:31:12;94063.34;;;6.33
12662;BMP180;3200;48.204;11.576;2024-03-02T06:33:39;94097.97;;;6.55
12662;BMP180;3200;48.204;11.576;2024-03-02T06:36:06;94013.41;;;6.02
12662;BMP180;3200;48.204;11.576;2024-03-02T06:38:34;94052.38;;;6.18
12662;BMP180;3200;48.204;11.576;2024-03-02T06:41:00;94034.22;;;6.10
12662;BMP180;3200;48.204;11.576;2024-03-02T06:43:26;94091.78;;;6.61
12662;BMP180;3200;48.204;11.576;2024-03-02T06:45:52;94026.25;;;6.28
12662;BMP180;3200;48.204;11.576;2024-03-02T06:48:18;94080.25;;;6.74
12662;BMP180;3200;48.204;11.576;2024-03-02T06:50:48;94009.53;;;6.34
12662;BMP180;3200;48.204;11.576;2024-03-02T06:53:14;94081.72;;;6.70
12662;BMP180;3200;48.204;11.576;2024-03-02T06:55:46;94042.47;;;6.44
12662;BMP180;3200;48.204;11.576;2024-03-02T06:58:13;94030.22;;;6.49
12662;BMP180;3200;48.204;11.576;2024-03-02T07:00:41;93950.06;;;5.90
12662;BMP180;3200;48.204;11.576;2024-03-02T07:03:07;94000.97;;;6.21
12662;BMP180;3200;48.204;11.576;2024-03-02T07:05:33;94064.97;;;6.76
12662;BMP180;3200;48.204;11.576;2024-03-02T07:07:59;94007.28;;;6.20
12662;BMP180;3200;48.204;11.576;2024-03-02T07:10:27;94079.84;;;6.59
12662;BMP180;3200;48.204;11.576;2024-03-02T07:12:52;94003.78;;;6.26
12662;BMP180;3200;48.204;11.576;2024-03-02T07:15:18;94011.81;;;6.31
12662;BMP180;3200;48.204;11.576;2024-03-02T07:17:55;94080.19;;;6.62
12662;BMP180;3200;48.204;11.576;2024-03-02T07:20:21;94094.06;;;6.88
12662;BMP180;3200;48.204;11.576;2024-03-02T07:22:47;94022.34;;;6.61
12662;BMP180;3200;48.204;11.576;2024-03-02T07:25:13;94026.03;;;6.60
12662;BMP180;3200;48.204;11.576;2024-03-02T07:27:40;94080.78;;;6.64
12662;BMP180;3200;48.204;11.576;2024-03-02T07:30:07;94089.94;;;7.04
12662;BMP180;3200;48.204;11.576;2024-03-02T07:32:33;94039.41;;;6.88
12662;BMP180;3200;48.204;11.576;2024-03-02T07:34:59;94067.34;;;8.30
12662;BMP180;3200;48.204;11.576;2024-03-02T07:37:26;94086.44;;;9.52
12662;BMP180;3200;48.204;11.576;2024-03-02T07:39:53;94049.31;;;8.15
12662;BMP180;3200;48.204;11.576;2024-03-02T07:42:18;94060.16;;;8.02
12662;BMP180;3200;48.204;11.576;2024-03-02T07:44:45;94070.78;;;8.42
12662;BMP180;3200;48.204;11.576;2024-03-02T07:47:11;94051.03;;;8.22
12662;BMP180;3200;48.204;11.576;2024-03-02T07:49:37;94038.19;;;8.02
12662;BMP180;3200;48.204;11.576;2024-03-02T07:52:03;94114.44;;;8.28
12662;BMP180;3200;48.204;11.576;2024-03-02T07:54:29;94045.41;;;7.54
12662;BMP180;3200;48.204;11.576;2024-03-02T07:56:55;94113.09;;;8.14
12662;BMP180;3200;48.204;11.576;2024-03-02T07:59:21;94099.09;;;7.78
12662;BMP180;3200;48.204;11.576;2024-03-02T08:01:49;94100.47;;;7.69
12662;BMP180;3200;48.204;11.576;2024-03-02T08:04:16;94105.03;;;7.85
12662;BMP180;3200;48.204;11.576;2024-03-02T08:06:41;94061.47;;;7.76
12662;BMP180;3200;48.204;11.576;2024-03-02T08:09:07;94091.00;;;7.97
12662;BMP180;3200;48.204;11.576;2024-03-02T08:11:36;94085.13;;;7.94
12662;BMP180;3200;48.204;11.576;2024-03-02T08:14:03;94007.31;;;7.79
12662;BMP180;3200;48.204;11.576;2024-03-02T08:16:29;94099.38;;;8.17
12662;BMP180;3200;48.204;11.576;2024-03-02T08:18:55;94094.72;;;8.48
12662;BMP180;3200;48.204;11.576;2024-03-02T08:21:24;94060.34;;;8.24
12662;BMP180;3200;48.204;11.576;2024-03-02T08:23:50;94026.91;;;7.54
12662;BMP180;3200;48.204;11.576;2024-03-02T08:26:16;94038.09;;;7.85
12662;BMP180;3200;48.204;11.576;2024-03-02T08:28:42;94086.97;;;8.58
12662;BMP180;3200;48.204;11.576;2024-03-02T08:31:08;94025.44;;;7.99
12662;BMP180;3200;48.204;11.576;2024-03-02T08:33:46;94095.69;;;8.18
12662;BMP180;3200;48.204;11.576;2024-03-02T08:36:12;94120.44;;;8.12
12662;BMP180;3200;48.204;11.576;2024-03-02T08:38:38;94061.81;;;7.91
12662;BMP180;3200;48.204;11.576;2024-03-02T08:41:04;94071.66;;;8.19
12662;BMP180;3200;48.204;11.576;2024-03-02T08:43:36;94099.00;;;8.37
12662;BMP180;3200;48.204;11.576;2024-03-02T08:46:02;94119.69;;;8.52
12662;BMP180;3200;48.204;11.576;2024-03-02T08:48:37;94117.25;;;8.62
12662;BMP180;3200;48.204;11.576;2024-03-02T08:51:03;94119.91;;;9.07
12662;BMP180;3200;48.204;11.576;2024-03-02T08:53:31;94113.81;;;9.07
12662;BMP180;3200;48.204;11.576;2024-03-02T08:55:57;94091.28;;;8.76
12662;BMP180;3200;48.204;11.576;2024-03-02T08:58:23;94096.16;;;9.29
12662;BMP180;3200;48.204;11.576;2024-03-02T09:00:49;94090.19;;;9.72
12662;BMP180;3200;48.204;11.576;2024-03-02T09:03:15;94099.59;;;9.80
12662;BMP180;3200;48.204;11.576;2024-03-02T09:05:41;94052.03;;;9.57
12662;BMP180;3200;48.204;11.576;2024-03-02T09:08:08;94103.84;;;9.81
12662;BMP180;3200;48.204;11.576;2024-03-02T09:10:39;94090.78;;;9.96
12662;BMP180;3200;48.204;11.576;2024-03-02T09:13:05;94070.19;;;10.04
12662;BMP180;3200;48.204;11.576;2024-03-02T09:15:31;94067.69;;;9.08
12662;BMP180;3200;48.204;11.576;2024-03-02T09:17:57;94052.44;;;8.98
12662;BMP180;3200;48.204;11.576;2024-03-02T09:20:23;94054.06;;;8.99
12662;BMP180;3200;48.204;11.576;2024-03-02T09:22:49;94087.16;;;9.13
12662;BMP180;3200;48.204;11.576;2024-03-02T09:25:15;94116.84;;;9.83
12662;BMP180;3200;48.204;11.576;2024-03-02T09:27:41;94097.03;;;9.52
12662;BMP180;3200;48.204;11.576;2024-03-02T09:33:23;94105.16;;;9.45
12662;BMP180;3200;48.204;11.576;2024-03-02T09:36:27;94116.31;;;9.97
12662;BMP180;3200;48.204;11.576;2024-03-02T09:39:05;94099.84;;;9.45
12662;BMP180;3200;48.204;11.576;2024-03-02T09:41:33;94064.09;;;9.14
12662;BMP180;3200;48.204;11.576;2024-03-02T09:43:59;94048.03;;;8.58
12662;BMP180;3200;48.204;11.576;2024-03-02T09:46:28;94059.31;;;8.82
12662;BMP180;3200;48.204;11.576;2024-03-02T09:48:54;94092.53;;;9.35
12662;BMP180;3200;48.204;11.576;2024-03-02T09:51:20;94113.84;;;9.57
12662;BMP180;3200;48.204;11.576;2024-03-02T09:53:47;94117.38;;;9.46
12662;BMP180;3200;48.204;11.576;2024-03-02T09:56:14;94106.03;;;9.67
12662;BMP180;3200;48.204;11.576;2024-03-02T09:58:41;94119.22;;;9.29
12662;BMP180;3200;48.204;11.576;2024-03-02T10:01:10;94117.66;;;8.99
12662;BMP180;3200;48.204;11.576;2024-03-02T10:03:39;94069.03;;;8.93
12662;BMP180;3200;48.204;11.576;2024-03-02T10:06:22;94098.16;;;9.22
12662;BMP180;3200;48.204;11.576;2024-03-02T10:08:49;94109.03;;;9.37
12662;BMP180;3200;48.204;11.576;2024-03-02T10:11:35;94106.28;;;9.32
12662;BMP180;3200;48.204;11.576;2024-03-02T10:14:39;94106.22;;;9.27
12662;BMP180;3200;48.204;11.576;2024-03-02T10:17:14;94104.50;;;9.21
12662;BMP180;3200;48.204;11.576;2024-03-02T10:19:45;94100.81;;;9.39
12662;BMP180;3200;48.204;11.576;2024-03-02T10:26:17;94063.69;;;9.94
12662;BMP180;3200;48.204;11.576;2024-03-02T10:28:47;94096.28;;;9.90
12662;BMP180;3200;48.204;11.576;2024-03-02T10:31:25;94079.66;;;10.16
12662;BMP180;3200;48.204;11.576;2024-03-02T10:33:55;94062.75;;;10.06
12662;BMP180;3200;48.204;11.576;2024-03-02T10:36:21;94073.03;;;10.19
12662;BMP180;3200;48.204;11.576;2024-03-02T10:38:47;94018.56;;;10.16
12662;BMP180;3200;48.204;11.576;2024-03-02T10:41:24;94067.97;;;10.39
12662;BMP180;3200;48.204;11.576;2024-03-02T10:43:53;94065.94;;;10.24
12662;BMP180;3200;48.204;11.576;2024-03-02T10:46:28;94061.59;;;9.96
12662;BMP180;3200;48.204;11.576;2024-03-02T10:48:58;94063.53;;;10.23
12662;BMP180;3200;48.204;11.576;2024-03-02T10:51:26;94066.84;;;10.57
12662;BMP180;3200;48.204;11.576;2024-03-02T10:53:54;94053.34;;;10.37
12662;BMP180;3200;48.204;11.576;2024-03-02T10:56:38;94049.31;;;10.34
12662;BMP180;3200;48.204;11.576;2024-03-02T10:59:37;94050.97;;;10.62
12662;BMP180;3200;48.204;11.576;2024-03-02T11:02:06;94033.63;;;10.55
12662;BMP180;3200;48.204;11.576;2024-03-02T11:04:35;94044.50;;;10.80
12662;BMP180;3200;48.204;11.576;2024-03-02T11:07:07;94049.56;;;10.55
12662;BMP180;3200;48.204;11.576;2024-03-02T11:09:37;94037.88;;;10.56
12662;BMP180;3200;48.204;11.576;2024-03-02T11:12:13;94029.72;;;10.89
12662;BMP180;3200;48.204;11.576;2024-03-02T11:14:42;94021.69;;;10.84
12662;BMP180;3200;48.204;11.576;2024-03-02T11:17:13;94006.94;;;10.71
12662;BMP180;3200;48.204;11.576;2024-03-02T11:19:42;94021.06;;;11.04
12662;BMP180;3200;48.204;11.576;2024-03-02T11:22:09;94019.91;;;10.68
12662;BMP180;3200;48.204;11.576;2024-03-02T11:24:35;94006.69;;;11.05
12662;BMP180;3200;48.204;11.576;2024-03-02T11:27:06;94003.19;;;10.99
12662;BMP180;3200;48.204;11.576;2024-03-02T11:32:21;94000.81;;;10.98
12662;BMP180;3200;48.204;11.576;2024-03-02T11:34:50;93976.94;;;10.76
12662;BMP180;3200;48.204;11.576;2024-03-02T11:37:18;93978.69;;;10.92
12662;BMP180;3200;48.204;11.576;2024-03-02T11:39:48;93985.03;;;11.23
12662;BMP180;3200;48.204;11.576;2024-03-02T11:42:15;93984.44;;;11.11
12662;BMP180;3200;48.204;11.576;2024-03-02T11:44:44;93980.22;;;11.15
12662;BMP180;3200;48.204;11.576;2024-03-02T11:47:14;93921.41;;;11.12
12662;BMP180;3200;48.204;11.576;2024-03-02T11:49:43;93974.72;;;11.32
12662;BMP180;3200;48.204;11.576;2024-03-02T11:52:15;93971.00;;;11.33
12662;BMP180;3200;48.204;11.576;2024-03-02T11:54:47;93960.50;;;11.54
12662;BMP180;3200;48.204;11.576;2024-03-02T11:57:21;93944.47;;;11.43
12662;BMP180;3200;48.204;11.576;2024-03-02T11:59:50;93916.25;;;11.42
12662;BMP180;3200;48.204;11.576;2024-03-02T12:02:19;93960.75;;;11.57
12662;BMP180;3200;48.204;11.576;2024-03-02T12:04:46;93930.13;;;11.49
12662;BMP180;3200;48.204;11.576;2024-03-02T12:07:19;93892.84;;;11.39
12662;BMP180;3200;48.204;11.576;2024-03-02T12:09:49;93940.88;;;11.70
12662;BMP180;3200;48.204;11.576;2024-03-02T12:12:24;93891.72;;;11.30
12662;BMP180;3200;48.204;11.576;2024-03-02T12:14:52;93930.97;;;11.55
12662;BMP180;3200;48.204;11.576;2024-03-02T12:17:18;93900.03;;;11.39
12662;BMP180;3200;48.204;11.576;2024-03-02T12:19:44;93899.53;;;11.52
12662;BMP180;3200;48.204;11.576;2024-03-02T12:22:11;93909.50;;;11.72
12662;BMP180;3200;48.204;11.576;2024-03-02T12:24:38;93882.09;;;11.82
12662;BMP180;3200;48.204;11.576;2024-03-02T12:27:05;93870.03;;;11.54
12662;BMP180;3200;48.204;11.576;2024-03-02T12:29:33;93886.41;;;11.88
12662;BMP180;3200;48.204;11.576;2024-03-02T12:31:59;93860.47;;;11.58
12662;BMP180;3200;48.204;11.576;2024-03-02T12:34:27;93843.63;;;11.47
12662;BMP180;3200;48.204;11.576;2024-03-02T12:36:53;93834.66;;;11.58
12662;BMP180;3200;48.204;11.576;2024-03-02T12:39:19;93807.16;;;11.32
12662;BMP180;3200;48.204;11.576;2024-03-02T12:41:55;93879.78;;;12.00
12662;BMP180;3200;48.204;11.576;2024-03-02T12:44:20;93868.06;;;12.01
12662;BMP180;3200;48.204;11.576;2024-03-02T12:46:47;93885.13;;;12.06
12662;BMP180;3200;48.204;11.576;2024-03-02T12:49:14;93865.41;;;12.01
12662;BMP180;3200;48.204;11.576;2024-03-02T12:51:46;93862.97;;;11.85
12662;BMP180;3200;48.204;11.576;2024-03-02T12:54:17;93866.47;;;11.95
12662;BMP180;3200;48.204;11.576;2024-03-02T12:56:43;93868.56;;;11.88
12662;BMP180;3200;48.204;11.576;2024-03-02T12:59:21;93857.91;;;11.83
12662;BMP180;3200;48.204;11.576;2024-03-02T13:01:54;93867.00;;;12.13
12662;BMP180;3200;48.204;11.576;2024-03-02T13:04:25;93844.63;;;11.93
12662;BMP180;3200;48.204;11.576;2024-03-02T13:06:52;93863.47;;;11.82
12662;BMP180;3200;48.204;11.576;2024-03-02T13:09:19;93791.78;;;11.55
12662;BMP180;3200;48.204;11.576;2024-03-02T13:11:45;93759.81;;;11.34
12662;BMP180;3200;48.204;11.576;2024-03-02T13:14:11;93772.88;;;11.46
12662;BMP180;3200;48.204;11.576;2024-03-02T13:16:41;93784.38;;;11.67
12662;BMP180;3200;48.204;11.576;2024-03-02T13:19:09;93847.34;;;12.24
12662;BMP180;3200;48.204;11.576;2024-03-02T13:21:35;93840.41;;;12.38
12662;BMP180;3200;48.204;11.576;2024-03-02T13:24:01;93831.34;;;12.39
12662;BMP180;3200;48.204;11.576;2024-03-02T13:26:27;93826.53;;;12.41
12662;BMP180;3200;48.204;11.576;2024-03-02T13:28:53;93837.47;;;12.30
12662;BMP180;3200;48.204;11.576;2024-03-02T13:31:19;93828.41;;;12.15
12662;BMP180;3200;48.204;11.576;2024-03-02T13:33:44;93837.22;;;12.31
12662;BMP180;3200;48.204;11.576;2024-03-02T13:36:10;93812.72;;;12.19
12662;BMP180;3200;48.204;11.576;2024-03-02T13:38:36;93820.69;;;12.49
12662;BMP180;3200;48.204;11.576;2024-03-02T13:41:02;93825.47;;;12.32
12662;BMP180;3200;48.204;11.576;2024-03-02T13:43:27;93799.91;;;12.51
12662;BMP180;3200;48.204;11.576;2024-03-02T13:45:59;93818.28;;;12.63
12662;BMP180;3200;48.204;11.576;2024-03-02T13:48:25;93772.75;;;12.34
12662;BMP180;3200;48.204;11.576;2024-03-02T13:50:54;93805.50;;;12.70
12662;BMP180;3200;48.204;11.576;2024-03-02T13:53:20;93794.59;;;12.21
12662;BMP180;3200;48.204;11.576;2024-03-02T13:55:46;93804.91;;;12.84
12662;BMP180;3200;48.204;11.576;2024-03-02T13:58:12;93798.28;;;12.50
12662;BMP180;3200;48.204;11.576;2024-03-02T14:00:39;93810.31;;;12.53
12662;BMP180;3200;48.204;11.576;2024-03-02T14:03:06;93800.97;;;12.71
12662;BMP180;3200;48.204;11.576;2024-03-02T14:05:32;93815.91;;;12.62
12662;BMP180;3200;48.204;11.576;2024-03-02T14:07:58;93789.25;;;12.41
12662;BMP180;3200;48.204;11.576;2024-03-02T14:10:26;93785.00;;;12.25
12662;BMP180;3200;48.204;11.576;2024-03-02T14:12:53;93779.94;;;12.28
12662;BMP180;3200;48.204;11.576;2024-03-02T14:15:21;93787.13;;;12.38
12662;BMP180;3200;48.204;11.576;2024-03-02T14:17:47;93795.91;;;12.49
12662;BMP180;3200;48.204;11.576;2024-03-02T14:20:13;93780.72;;;12.29
12662;BMP180;3200;48.204;11.576;2024-03-02T14:22:40;93779.13;;;12.48
12662;BMP180;3200;48.204;11.576;2024-03-02T14:25:06;93735.44;;;12.24
12662;BMP180;3200;48.204;11.576;2024-03-02T14:27:32;93723.75;;;12.10
12662;BMP180;3200;48.204;11.576;2024-03-02T14:29:58;93710.97;;;11.86
12662;BMP180;3200;48.204;11.576;2024-03-02T14:32:24;93729.06;;;12.10
12662;BMP180;3200;48.204;11.576;2024-03-02T14:34:50;93696.00;;;11.75